Time;durP1;ratioP1;P1;durP2;ratioP2;P2;SDS_P1;SDS_P2;PMS_P1;PMS_P2;Temp;Humidity;BMP_temperature;BMP_pressure;BME280_temperature;BME280_humidity;BME280_pressure;Samples;Min_cycle;Max_cycle;Signal;HPM_P1;HPM_P2
2021/07/04 00:00:13;;;;;;;9.32;8.50;;;17.70;99.90;;;18.39;94.48;97708.06;5202371;28;20197;-60
2021/07/04 00:02:48;;;;;;;9.15;8.35;;;17.80;99.90;;;18.39;94.28;97697.72;5196630;28;20225;-61
2021/07/04 00:05:23;;;;;;;9.65;8.80;;;17.70;99.90;;;18.32;94.29;97695.84;5198098;28;20197;-60
2021/07/04 00:07:56;;;;;;;10.20;9.30;;;17.70;99.90;;;18.27;95.36;97687.09;5204001;28;20220;-60
2021/07/04 00:10:33;;;;;;;10.75;9.85;;;17.60;99.90;;;18.27;95.22;97686.22;5202158;28;20201;-60
2021/07/04 00:13:06;;;;;;;10.45;9.55;;;17.60;99.90;;;18.21;94.33;97685.22;5202310;28;20214;-60
2021/07/04 00:15:42;;;;;;;10.32;9.32;;;17.60;99.90;;;18.24;95.32;97681.84;5201268;28;20289;-60
2021/07/04 00:18:19;;;;;;;10.32;9.43;;;17.60;99.90;;;18.21;94.96;97674.00;5202406;28;20289;-60
2021/07/04 00:20:54;;;;;;;10.38;9.45;;;17.60;99.90;;;18.18;94.58;97673.94;5204854;28;20222;-60
2021/07/04 00:23:28;;;;;;;9.68;8.88;;;17.50;99.90;;;18.15;94.17;97666.97;5204620;28;20227;-61
2021/07/04 00:26:01;;;;;;;9.43;8.52;;;17.50;99.90;;;18.14;94.14;97664.34;5200790;28;20194;-60
2021/07/04 00:28:35;;;;;;;9.38;8.57;;;17.50;99.90;;;18.13;94.13;97660.88;5204964;28;20195;-61
2021/07/04 00:31:08;;;;;;;10.07;9.25;;;17.40;99.90;;;18.13;93.80;97652.25;5202203;28;20212;-61
2021/07/04 00:33:42;;;;;;;10.63;9.73;;;17.40;99.90;;;18.10;93.17;97649.59;5197896;28;20229;-61
2021/07/04 00:36:16;;;;;;;10.23;9.32;;;17.40;99.90;;;18.10;93.76;97658.22;5201638;28;20566;-61
2021/07/04 00:38:49;;;;;;;10.27;9.38;;;17.30;99.90;;;18.15;94.61;97656.63;5201360;28;20202;-60
2021/07/04 00:41:22;;;;;;;10.18;9.18;;;17.40;99.90;;;18.18;95.32;97655.81;5205285;28;20332;-60
2021/07/04 00:43:55;;;;;;;10.07;9.23;;;17.50;99.90;;;18.19;95.38;97658.44;5197563;28;20201;-60
2021/07/04 00:46:30;;;;;;;10.68;9.52;;;17.50;99.90;;;18.24;95.67;97654.25;5194801;28;20216;-60
2021/07/04 00:49:06;;;;;;;9.38;8.57;;;17.60;99.90;;;18.30;95.61;97650.94;5195821;28;20234;-60
2021/07/04 00:51:40;;;;;;;10.10;9.20;;;17.60;99.90;;;18.34;95.10;97657.03;5199071;28;20305;-61
2021/07/04 00:54:14;;;;;;;10.15;9.15;;;17.60;99.90;;;18.33;94.93;97655.31;5199739;28;20195;-60
2021/07/04 00:56:47;;;;;;;9.68;8.88;;;17.60;99.90;;;18.29;95.00;97650.91;5203047;28;20705;-60
2021/07/04 00:59:21;;;;;;;9.23;8.52;;;17.60;99.90;;;18.34;94.45;97652.78;5203796;28;20204;-60
2021/07/04 01:01:58;;;;;;;10.25;9.13;;;17.60;99.90;;;18.38;93.78;97653.72;5197897;28;20222;-61
2021/07/04 01:04:33;;;;;;;9.45;8.57;;;17.60;99.90;;;18.40;93.50;97658.09;5196411;28;20198;-60
2021/07/04 01:07:09;;;;;;;10.10;9.30;;;17.60;99.90;;;18.35;93.73;97649.34;5198155;28;20197;-59
2021/07/04 01:09:42;;;;;;;9.23;8.45;;;17.50;99.90;;;18.33;93.50;97655.31;5202727;28;20194;-60
2021/07/04 01:12:15;;;;;;;9.77;8.98;;;17.50;99.90;;;18.34;93.43;97645.00;5198450;28;20210;-60
2021/07/04 01:14:48;;;;;;;9.60;8.80;;;17.50;99.90;;;18.37;93.32;97651.94;5198827;28;20202;-60
2021/07/04 01:17:21;;;;;;;9.15;8.45;;;17.50;99.90;;;18.39;93.81;97658.91;5209109;28;20194;-61
2021/07/04 01:19:56;;;;;;;8.70;8.00;;;17.50;99.90;;;18.48;93.12;97654.78;5203967;28;20581;-60
2021/07/04 01:22:31;;;;;;;9.38;8.57;;;17.60;99.90;;;18.46;93.26;97647.88;5197957;28;20701;-60
2021/07/04 01:25:06;;;;;;;9.35;8.45;;;17.50;99.90;;;18.45;93.30;97638.31;5204438;28;20201;-60
2021/07/04 01:27:39;;;;;;;9.60;8.80;;;17.50;99.90;;;18.40;92.97;97641.69;5199074;28;20204;-60
2021/07/04 01:30:15;;;;;;;10.20;9.27;;;17.50;99.90;;;18.32;93.66;97628.56;5203231;28;20654;-60
2021/07/04 01:32:48;;;;;;;10.52;9.73;;;17.50;99.90;;;18.28;92.97;97625.84;5197661;28;20728;-60
2021/07/04 01:35:21;;;;;;;9.68;8.88;;;17.40;99.90;;;18.21;93.29;97614.50;5195339;28;20193;-61
2021/07/04 01:37:55;;;;;;;9.90;9.05;;;17.40;99.90;;;18.20;93.94;97623.97;5200040;28;20469;-61
2021/07/04 01:40:30;;;;;;;9.50;8.70;;;17.40;99.90;;;18.22;94.31;97632.63;5199054;28;20196;-60
2021/07/04 01:43:03;;;;;;;9.70;8.90;;;17.40;99.90;;;18.30;94.22;97629.38;5201035;28;20227;-60
2021/07/04 01:45:38;;;;;;;9.40;8.55;;;17.40;99.90;;;18.32;94.40;97633.75;5199697;28;20661;-60
2021/07/04 01:48:13;;;;;;;9.65;8.75;;;17.50;99.90;;;18.37;93.62;97634.72;5202449;28;20200;-60
2021/07/04 01:50:49;;;;;;;9.20;8.40;;;17.50;99.90;;;18.40;93.40;97641.69;5200042;28;20223;-60
2021/07/04 01:53:22;;;;;;;9.15;8.35;;;17.40;99.90;;;18.39;93.25;97635.59;5201268;28;20221;-60
2021/07/04 01:55:57;;;;;;;9.48;8.57;;;17.50;99.90;;;18.38;93.11;97644.22;5202120;28;20212;-60
2021/07/04 01:58:30;;;;;;;9.38;8.57;;;17.40;99.90;;;18.28;93.50;97647.44;5193069;28;20580;-60
2021/07/04 02:01:05;;;;;;;10.25;9.35;;;17.40;99.90;;;18.22;94.03;97650.75;5199735;28;20202;-60
2021/07/04 02:03:38;;;;;;;9.80;9.07;;;17.40;99.90;;;18.18;93.16;97641.19;5202350;28;20198;-60
2021/07/04 02:06:11;;;;;;;9.68;8.77;;;17.30;99.90;;;18.15;93.00;97645.41;5199440;28;20681;-61
2021/07/04 02:08:44;;;;;;;9.13;8.43;;;17.30;99.90;;;18.11;93.63;97646.16;5204583;28;20202;-60
2021/07/04 02:11:19;;;;;;;9.52;8.73;;;17.20;99.90;;;18.07;93.72;97652.09;5201925;28;20194;-60
2021/07/04 02:13:52;;;;;;;9.48;8.68;;;17.20;99.90;;;18.07;93.82;97657.28;5204248;28;20189;-60
2021/07/04 02:16:25;;;;;;;10.57;9.63;;;17.20;99.90;;;18.04;94.35;97654.63;5199659;28;20232;-60
2021/07/04 02:18:58;;;;;;;10.93;10.00;;;17.30;99.90;;;18.06;94.60;97652.97;5203688;28;20198;-61
2021/07/04 02:21:31;;;;;;;10.02;9.07;;;17.30;99.90;;;18.06;94.78;97650.38;5200305;28;20226;-60
2021/07/04 02:24:05;;;;;;;10.23;9.30;;;17.30;99.90;;;18.02;93.97;97654.56;5205761;28;20197;-60
2021/07/04 02:26:40;;;;;;;10.35;9.32;;;17.20;99.90;;;18.02;93.85;97650.25;5207327;28;21611;-60
2021/07/04 02:29:13;;;;;;;9.25;8.50;;;17.20;99.90;;;18.00;94.22;97657.13;5201430;28;20216;-60
2021/07/04 02:31:46;;;;;;;10.50;9.60;;;17.20;99.90;;;18.01;94.55;97658.00;5204828;28;20229;-57
2021/07/04 02:34:20;;;;;;;9.15;8.43;;;17.20;99.90;;;18.06;94.37;97646.06;5198591;28;20202;-60
2021/07/04 02:36:53;;;;;;;10.02;9.10;;;17.20;99.90;;;18.06;94.01;97650.38;5201346;28;20194;-60
2021/07/04 02:39:26;;;;;;;10.70;9.70;;;17.20;99.90;;;18.02;94.18;97646.81;5198503;28;20217;-60
2021/07/04 02:42:00;;;;;;;9.80;9.00;;;17.20;99.90;;;17.98;94.26;97647.59;5207426;28;20596;-60
2021/07/04 02:44:33;;;;;;;9.80;8.95;;;17.20;99.90;;;17.97;93.91;97646.72;5201881;28;20199;-60
2021/07/04 02:47:06;;;;;;;9.30;8.50;;;17.20;99.90;;;17.99;93.89;97652.78;5202458;28;20190;-60
2021/07/04 02:49:40;;;;;;;9.32;8.60;;;17.20;99.90;;;17.99;94.56;97655.38;5197462;28;20202;-60
2021/07/04 02:52:13;;;;;;;8.95;8.15;;;17.20;99.90;;;17.97;93.48;97646.72;5205757;28;20214;-60
2021/07/04 02:54:46;;;;;;;9.93;8.95;;;17.10;99.90;;;18.06;92.57;97645.19;5202655;28;20574;-59
2021/07/04 02:57:20;;;;;;;9.43;8.63;;;17.10;99.90;;;17.90;93.91;97637.03;5207405;28;20556;-60
2021/07/04 02:59:53;;;;;;;10.05;9.05;;;17.10;99.90;;;17.91;93.18;97633.63;5201462;28;20201;-60
2021/07/04 03:02:27;;;;;;;9.95;9.05;;;17.10;99.90;;;17.89;93.46;97637.91;5200921;28;20218;-60
2021/07/04 03:05:00;;;;;;;9.38;8.68;;;17.10;99.90;;;17.91;93.08;97637.91;5205196;28;20196;-60
2021/07/04 03:07:33;;;;;;;9.65;8.85;;;17.00;99.90;;;17.90;93.04;97629.28;5203978;28;20204;-60
2021/07/04 03:10:08;;;;;;;9.55;8.70;;;17.10;99.90;;;17.92;93.86;97627.63;5206882;28;20200;-60
2021/07/04 03:12:43;;;;;;;9.35;8.55;;;17.10;99.90;;;17.95;94.64;97627.69;5202630;28;20282;-60
2021/07/04 03:15:18;;;;;;;10.05;9.25;;;17.20;99.90;;;17.99;93.52;97624.31;5206407;28;20201;-60
2021/07/04 03:17:51;;;;;;;10.48;9.57;;;17.10;99.90;;;17.97;93.66;97633.78;5206252;28;20198;-60
2021/07/04 03:20:25;;;;;;;9.20;8.43;;;17.20;99.90;;;17.99;93.84;97626.91;5203093;28;20570;-60
2021/07/04 03:22:58;;;;;;;9.30;8.50;;;17.20;99.90;;;17.99;93.58;97624.31;5206337;28;20225;-60
2021/07/04 03:25:31;;;;;;;9.20;8.40;;;17.20;99.90;;;18.05;93.71;97633.09;5203755;28;20333;-60
2021/07/04 03:28:05;;;;;;;8.98;8.27;;;17.20;99.90;;;18.10;93.39;97628.91;5206346;28;20202;-60
2021/07/04 03:30:39;;;;;;;8.77;8.07;;;17.20;99.90;;;18.11;93.23;97628.06;5199671;28;20209;-60
2021/07/04 03:33:12;;;;;;;9.18;8.35;;;17.20;99.90;;;18.11;92.89;97626.34;5202378;28;20239;-60
2021/07/04 03:35:45;;;;;;;10.13;9.23;;;17.20;99.90;;;18.09;93.45;97622.84;5206747;28;20304;-60
2021/07/04 03:38:18;;;;;;;9.77;8.98;;;17.20;99.90;;;18.02;93.08;97614.06;5200290;28;20654;-60
2021/07/04 03:40:51;;;;;;;9.68;8.85;;;17.30;99.90;;;18.04;93.01;97615.81;5203754;28;20213;-61
2021/07/04 03:43:26;;;;;;;8.88;8.18;;;17.20;99.90;;;18.06;93.22;97621.91;5206258;28;20222;-60
2021/07/04 03:45:59;;;;;;;9.73;8.93;;;17.20;99.90;;;18.01;92.67;97617.50;5201453;28;20285;-61
2021/07/04 03:48:32;;;;;;;8.50;7.90;;;17.20;99.90;;;17.96;92.69;97621.66;5200486;28;20225;-60
2021/07/04 03:51:05;;;;;;;9.95;9.15;;;17.10;99.90;;;18.02;93.16;97621.81;5202748;28;20204;-60
2021/07/04 03:53:38;;;;;;;8.98;8.27;;;17.20;99.90;;;18.00;92.37;97620.06;5200499;28;20201;-59
2021/07/04 03:56:11;;;;;;;8.45;7.75;;;17.10;99.90;;;18.01;92.00;97617.50;5199632;28;20193;-60
2021/07/04 03:58:45;;;;;;;9.63;8.82;;;17.20;99.90;;;18.04;92.86;97615.81;5204797;28;20300;-60
2021/07/04 04:01:19;;;;;;;8.90;8.10;;;17.20;99.90;;;18.03;92.73;97620.13;5201893;28;20208;-59
2021/07/04 04:03:53;;;;;;;9.93;9.00;;;17.20;99.90;;;18.04;92.67;97615.81;5202929;28;20220;-59
2021/07/04 04:06:26;;;;;;;8.70;8.00;;;17.20;99.90;;;18.05;92.37;97612.38;5200253;28;20194;-60
2021/07/04 04:08:59;;;;;;;8.43;7.72;;;17.20;99.90;;;18.06;91.71;97621.91;5197641;28;20190;-60
2021/07/04 04:11:32;;;;;;;8.48;7.82;;;17.10;99.90;;;18.01;90.76;97617.50;5201300;28;20596;-60
2021/07/04 04:14:06;;;;;;;8.65;7.95;;;17.10;99.90;;;17.92;91.47;97619.00;5199564;28;20536;-61
2021/07/04 04:16:39;;;;;;;8.40;7.70;;;17.00;99.90;;;17.99;90.62;97621.75;5204932;28;20673;-60
2021/07/04 04:19:17;;;;;;;8.23;7.53;;;17.00;99.90;;;17.96;91.19;97619.09;5202032;28;20195;-60
2021/07/04 04:21:50;;;;;;;8.10;7.50;;;17.00;99.90;;;17.95;90.93;97622.53;5198984;28;20240;-60
2021/07/04 04:24:23;;;;;;;8.73;8.02;;;17.10;99.90;;;17.99;91.06;97619.16;5202698;28;20237;-59
2021/07/04 04:26:56;;;;;;;9.18;8.38;;;17.10;99.90;;;17.99;91.37;97618.28;5198113;28;20186;-60
2021/07/04 04:29:31;;;;;;;7.93;7.32;;;17.10;99.90;;;18.02;92.15;97615.78;5196965;28;21626;-60
2021/07/04 04:32:05;;;;;;;8.00;7.40;;;17.10;99.90;;;18.03;91.50;97612.38;5196656;28;20637;-60
2021/07/04 04:34:38;;;;;;;9.93;8.93;;;17.20;99.90;;;17.99;91.88;97608.81;5205242;28;20633;-60
2021/07/04 04:37:12;;;;;;;8.32;7.70;;;17.10;99.90;;;18.01;91.27;97620.06;5203739;28;20193;-60
2021/07/04 04:39:45;;;;;;;8.75;8.05;;;17.20;99.90;;;18.08;91.12;97620.22;5193636;28;20208;-60
2021/07/04 04:42:18;;;;;;;9.45;8.65;;;17.20;99.90;;;18.12;90.76;97619.47;5196649;28;20681;-60
2021/07/04 04:44:53;;;;;;;9.60;8.70;;;17.20;99.90;;;18.22;91.77;97621.41;5195213;28;20222;-60
2021/07/04 04:47:26;;;;;;;9.00;8.20;;;17.30;99.90;;;18.49;91.58;97612.53;5199992;28;20205;-60
2021/07/04 04:49:59;;;;;;;8.60;7.90;;;17.60;99.90;;;19.07;89.97;97606.00;5197445;28;20208;-60
2021/07/04 04:52:32;;;;;;;8.38;7.78;;;18.10;99.90;;;19.52;86.83;97610.31;5202464;28;20226;-60
2021/07/04 04:55:07;;;;;;;8.73;8.02;;;18.50;99.90;;;19.75;82.97;97616.78;5199761;28;20198;-60
2021/07/04 04:57:40;;;;;;;8.18;7.47;;;18.60;99.90;;;19.84;82.89;97612.59;5202465;28;20189;-60
2021/07/04 05:00:16;;;;;;;8.38;7.68;;;18.60;99.90;;;19.97;82.36;97609.34;5196179;28;20198;-60
2021/07/04 05:02:49;;;;;;;7.95;7.30;;;18.70;99.90;;;20.15;82.54;97599.25;5194456;28;20647;-60
2021/07/04 05:05:22;;;;;;;8.07;7.38;;;19.00;99.90;;;20.63;81.83;97598.25;5197896;28;20195;-60
2021/07/04 05:07:55;;;;;;;7.85;7.25;;;19.50;99.90;;;21.23;79.08;97590.25;5197292;28;20686;-60
2021/07/04 05:10:29;;;;;;;8.10;7.50;;;20.00;99.90;;;21.48;76.17;97592.28;5196777;28;20197;-61
2021/07/04 05:13:02;;;;;;;8.27;7.65;;;20.20;99.90;;;21.46;74.26;97583.63;5199273;28;20210;-60
2021/07/04 05:15:37;;;;;;;7.50;6.90;;;20.10;99.90;;;21.48;75.97;97576.69;5204153;28;20670;-60
2021/07/04 05:18:10;;;;;;;8.15;7.35;;;20.20;99.90;;;21.77;74.95;97568.25;5200303;28;20193;-60
2021/07/04 05:20:43;;;;;;;8.50;7.57;;;20.40;99.90;;;21.90;72.43;97570.09;5202420;28;21911;-60
2021/07/04 05:23:16;;;;;;;8.00;7.40;;;20.60;99.90;;;22.20;73.26;97564.25;5202896;28;20232;-60
2021/07/04 05:25:50;;;;;;;8.80;7.80;;;20.70;99.90;;;22.65;71.20;97567.13;5202736;28;20194;-60
2021/07/04 05:28:25;;;;;;;8.35;7.65;;;21.10;99.90;;;23.14;68.89;97572.53;5198937;28;20198;-62
2021/07/04 05:30:59;;;;;;;7.68;7.07;;;21.50;99.90;;;23.30;67.19;97563.88;5200273;28;20284;-62
2021/07/04 05:33:32;;;;;;;7.65;7.03;;;21.60;99.90;;;23.42;67.30;97572.59;5198177;28;20255;-61
2021/07/04 05:36:05;;;;;;;7.78;7.18;;;21.60;99.90;;;23.13;66.99;97560.38;5198595;28;20201;-62
2021/07/04 05:38:40;;;;;;;7.95;7.22;;;21.30;99.90;;;22.63;68.72;97558.41;5194143;28;20209;-62
2021/07/04 05:41:15;;;;;;;7.72;7.13;;;21.00;99.90;;;22.52;69.92;97557.50;5202045;28;20197;-62
2021/07/04 05:43:50;;;;;;;7.18;6.68;;;20.90;99.90;;;22.42;70.80;97549.63;5196469;28;20217;-62
2021/07/04 05:46:24;;;;;;;7.60;7.00;;;20.80;99.90;;;22.35;71.08;97552.19;5201706;28;20288;-62
2021/07/04 05:48:58;;;;;;;7.47;6.78;;;20.80;99.90;;;22.48;70.57;97560.09;5201023;28;20247;-62
2021/07/04 05:51:31;;;;;;;6.82;6.22;;;20.80;99.90;;;22.62;70.51;97547.13;5201779;28;20228;-62
2021/07/04 05:54:04;;;;;;;7.72;7.03;;;20.90;99.90;;;22.94;69.61;97544.63;5198548;28;20200;-62
2021/07/04 05:56:38;;;;;;;7.95;7.15;;;21.20;99.90;;;23.20;67.72;97538.66;5202132;28;20202;-62
2021/07/04 05:59:12;;;;;;;7.25;6.65;;;21.40;99.90;;;23.44;66.73;97539.56;5197262;28;20212;-62
2021/07/04 06:01:47;;;;;;;7.20;6.63;;;21.40;99.90;;;23.29;66.86;97537.78;5203932;28;20222;-62
2021/07/04 06:04:20;;;;;;;7.22;6.72;;;21.40;99.90;;;23.06;66.96;97537.75;5202613;28;20308;-62
2021/07/04 06:06:53;;;;;;;7.97;7.20;;;21.30;99.90;;;23.04;67.47;97529.06;5205757;28;20198;-63
2021/07/04 06:09:26;;;;;;;6.75;6.20;;;21.30;99.90;;;23.58;66.44;97535.22;5201919;28;20204;-62
2021/07/04 06:12:00;;;;;;;7.38;6.80;;;21.60;99.90;;;23.98;64.78;97527.38;5204360;28;20218;-62
2021/07/04 06:14:33;;;;;;;6.55;5.95;;;21.90;99.90;;;24.19;63.69;97522.13;5204290;28;20700;-62
2021/07/04 06:17:07;;;;;;;6.28;5.70;;;22.20;99.90;;;24.51;63.05;97523.81;5203342;28;20198;-62
2021/07/04 06:19:40;;;;;;;6.63;6.03;;;22.40;99.90;;;24.91;62.61;97526.25;5202677;28;20567;-62
2021/07/04 06:22:13;;;;;;;6.38;5.88;;;22.60;99.90;;;25.40;59.92;97524.22;5198520;28;20224;-63
2021/07/04 06:24:47;;;;;;;5.45;5.05;;;23.10;99.90;;;25.80;58.57;97528.25;5192249;28;20216;-63
2021/07/04 06:27:20;;;;;;;6.00;5.50;;;23.20;99.90;;;25.65;57.76;97528.41;5199283;28;20208;-63
2021/07/04 06:29:53;;;;;;;5.20;4.80;;;23.10;99.90;;;25.27;59.50;97532.19;5203227;28;20198;-63
2021/07/04 06:32:28;;;;;;;5.90;5.50;;;22.90;99.90;;;24.89;59.85;97533.22;5206779;28;20213;-63
2021/07/04 06:35:01;;;;;;;6.13;5.63;;;22.50;99.90;;;24.50;61.16;97538.63;5206580;28;20844;-62
2021/07/04 06:37:34;;;;;;;6.43;5.85;;;22.40;99.90;;;24.39;61.89;97534.28;5203701;28;20228;-62
2021/07/04 06:40:09;;;;;;;6.18;5.68;;;22.20;99.90;;;24.29;62.32;97538.63;5199893;28;20197;-62
2021/07/04 06:42:42;;;;;;;6.50;5.93;;;22.10;99.90;;;24.14;63.67;97529.09;5202644;28;20219;-62
2021/07/04 06:45:17;;;;;;;6.80;6.28;;;22.00;99.90;;;24.06;63.78;97533.47;5205675;28;20230;-63
2021/07/04 06:47:52;;;;;;;6.50;6.00;;;22.00;99.90;;;24.01;63.40;97516.97;5203069;28;20194;-62
2021/07/04 06:50:25;;;;;;;6.13;5.60;;;21.90;99.90;;;23.97;64.31;97529.13;5193142;28;20225;-63
2021/07/04 06:52:58;;;;;;;5.63;5.15;;;22.00;99.90;;;23.91;62.33;97523.06;5196738;28;20218;-62
2021/07/04 06:55:31;;;;;;;5.05;4.75;;;22.00;99.90;;;24.22;62.23;97522.13;5207783;28;20193;-64
2021/07/04 06:58:04;;;;;;;4.60;4.25;;;22.30;99.90;;;24.60;60.45;97521.16;5199338;28;20204;-63
2021/07/04 07:00:37;;;;;;;4.25;3.95;;;22.50;99.90;;;25.03;58.09;97517.44;5206531;28;20288;-62
2021/07/04 07:03:13;;;;;;;4.75;4.35;;;22.80;99.90;;;25.68;56.52;97517.91;5200839;28;20237;-63
2021/07/04 07:05:46;;;;;;;4.47;4.18;;;23.20;99.90;;;25.95;55.19;97512.44;5205307;28;20248;-62
2021/07/04 07:08:19;;;;;;;5.40;5.00;;;23.70;99.90;;;26.44;54.07;97511.94;5198218;28;20198;-63
2021/07/04 07:10:52;;;;;;;4.40;4.10;;;24.10;99.90;;;26.71;52.83;97517.75;5202172;28;20202;-64
2021/07/04 07:13:25;;;;;;;4.22;3.92;;;24.40;99.90;;;27.18;52.26;97518.88;5205416;28;20213;-60
2021/07/04 07:15:58;;;;;;;3.72;3.53;;;24.70;99.90;;;27.72;49.82;97524.16;5204720;28;20204;-63
2021/07/04 07:18:33;;;;;;;3.95;3.65;;;25.00;99.90;;;28.39;47.81;97526.50;5193804;28;20216;-63
2021/07/04 07:21:06;;;;;;;4.15;3.75;;;25.50;99.90;;;28.57;46.15;97525.31;5200286;28;20731;-63
2021/07/04 07:23:39;;;;;;;4.28;3.97;;;25.80;99.90;;;28.81;46.68;97521.28;5200898;28;20202;-64
2021/07/04 07:26:12;;;;;;;4.40;4.05;;;25.90;99.90;;;29.09;46.03;97522.44;5200175;28;20225;-64
2021/07/04 07:28:45;;;;;;;4.10;3.80;;;26.30;99.90;;;29.14;45.71;97517.97;5201399;28;20514;-64
2021/07/04 07:31:21;;;;;;;4.35;4.05;;;26.40;99.90;;;29.69;43.80;97515.81;5203829;28;20201;-64
2021/07/04 07:33:56;;;;;;;4.45;4.15;;;26.70;99.60;;;29.72;43.70;97515.72;5201128;28;20189;-64
2021/07/04 07:36:29;;;;;;;4.00;3.67;;;27.10;99.10;;;30.13;41.86;97520.84;5199638;28;20205;-63
2021/07/04 07:39:03;;;;;;;4.13;3.78;;;27.10;97.90;;;30.25;42.66;97510.00;5196029;28;20198;-64
2021/07/04 07:41:36;;;;;;;4.18;3.88;;;27.40;98.10;;;30.62;40.46;97504.56;5194320;28;20227;-64
2021/07/04 07:44:09;;;;;;;3.70;3.50;;;27.80;96.30;;;30.47;41.51;97508.47;5203094;28;20581;-64
2021/07/04 07:46:43;;;;;;;3.83;3.53;;;27.70;96.80;;;30.59;41.44;97499.38;5202118;28;20597;-64
2021/07/04 07:49:18;;;;;;;3.92;3.72;;;27.50;97.30;;;31.02;39.91;97499.88;5201852;28;20207;-64
2021/07/04 07:51:51;;;;;;;4.10;3.65;;;27.80;96.40;;;31.48;39.39;97496.72;5199277;28;20625;-63
2021/07/04 07:54:24;;;;;;;3.90;3.60;;;27.90;96.30;;;31.43;39.30;97498.63;5203773;28;20259;-63
2021/07/04 07:56:57;;;;;;;4.10;3.80;;;27.90;95.80;;;30.83;40.27;97489.91;5203565;28;20212;-63
2021/07/04 07:59:31;;;;;;;3.95;3.65;;;27.70;96.50;;;30.07;41.33;97480.53;5197300;28;20208;-63
2021/07/04 08:02:05;;;;;;;4.45;4.15;;;27.00;96.90;;;29.67;42.47;97467.53;5200533;28;20217;-63
2021/07/04 08:04:40;;;;;;;3.92;3.63;;;26.80;97.00;;;29.26;43.30;97463.28;5202637;28;20299;-63
2021/07/04 08:07:13;;;;;;;3.90;3.67;;;26.50;98.20;;;28.48;44.01;97460.63;5198079;28;20208;-63
2021/07/04 08:09:46;;;;;;;3.90;3.60;;;25.90;97.70;;;28.46;46.04;97460.63;5199930;28;20210;-63
2021/07/04 08:12:20;;;;;;;3.75;3.55;;;25.90;99.10;;;29.57;43.82;97458.13;5199178;28;20739;-62
2021/07/04 08:14:53;;;;;;;3.85;3.55;;;26.50;98.70;;;30.38;42.03;97463.91;5196724;28;20607;-64
2021/07/04 08:17:26;;;;;;;3.72;3.42;;;26.90;97.70;;;31.26;39.87;97454.22;5199203;28;20228;-63
2021/07/04 08:20:01;;;;;;;3.90;3.60;;;27.80;96.60;;;31.70;38.23;97443.97;5199719;28;20692;-63
2021/07/04 08:22:35;;;;;;;4.10;3.80;;;28.10;95.20;;;31.90;37.75;97440.63;5202296;28;20223;-63
2021/07/04 08:25:09;;;;;;;3.25;3.05;;;28.30;95.20;;;31.68;37.73;97453.75;5202902;28;20217;-63
2021/07/04 08:27:44;;;;;;;3.70;3.50;;;29.00;93.40;;;31.01;39.22;97454.13;5201641;28;20201;-63
2021/07/04 08:30:19;;;;;;;3.50;3.30;;;28.50;93.70;;;30.41;40.25;97450.63;5201972;28;20784;-64
2021/07/04 08:32:52;;;;;;;3.60;3.40;;;27.80;94.20;;;29.50;41.88;97443.38;5201991;28;20217;-64
2021/07/04 08:35:26;;;;;;;4.13;3.83;;;27.00;96.40;;;29.24;43.31;97444.00;5202711;28;20200;-64
2021/07/04 08:37:59;;;;;;;3.50;3.30;;;27.00;96.20;;;29.73;42.96;97437.53;5195562;28;20199;-63
2021/07/04 08:40:33;;;;;;;3.72;3.53;;;27.60;95.60;;;30.11;40.88;97438.28;5197416;28;20215;-63
2021/07/04 08:43:07;;;;;;;3.65;3.45;;;28.10;93.90;;;29.96;41.40;97443.09;5200676;28;20823;-64
2021/07/04 08:45:41;;;;;;;3.45;3.25;;;28.20;94.50;;;29.70;42.40;97435.84;5202937;28;20696;-65
2021/07/04 08:48:14;;;;;;;3.63;3.33;;;28.30;94.60;;;30.22;41.20;97442.38;5196353;28;20204;-64
2021/07/04 08:50:49;;;;;;;3.90;3.60;;;28.60;93.30;;;30.52;40.00;97448.53;5200467;28;20204;-64
2021/07/04 08:53:22;;;;;;;3.45;3.20;;;29.00;92.90;;;30.87;40.37;97451.06;5200025;28;20219;-64
2021/07/04 08:55:55;;;;;;;3.67;3.45;;;29.30;92.80;;;31.10;39.52;97450.34;5202567;28;20197;-63
2021/07/04 08:58:29;;;;;;;3.60;3.40;;;29.50;92.40;;;31.03;38.39;97448.81;5195184;28;20205;-63
2021/07/04 09:01:25;;;;;;;3.60;3.30;;;29.50;91.20;;;30.64;39.54;97443.81;5197036;28;20196;-63
2021/07/04 09:04:10;;;;;;;3.65;3.35;;;29.00;92.40;;;30.78;39.18;97446.03;5200192;28;20211;-63
2021/07/04 09:06:47;;;;;;;3.60;3.40;;;28.90;91.70;;;30.59;39.91;97446.59;5202552;28;20213;-63
2021/07/04 09:09:24;;;;;;;3.90;3.50;;;28.70;92.60;;;30.18;39.46;97450.38;5199500;28;20196;-63
2021/07/04 09:12:01;;;;;;;3.55;3.35;;;28.50;92.20;;;29.91;39.00;97446.75;5202608;28;20231;-63
2021/07/04 09:14:39;;;;;;;3.95;3.65;;;28.00;91.90;;;29.52;39.50;97444.19;5198636;28;20209;-63
2021/07/04 09:17:34;;;;;;;3.20;3.00;;;27.70;92.00;;;29.30;41.08;97443.88;5202488;28;20197;-63
2021/07/04 09:20:11;;;;;;;3.75;3.55;;;27.40;93.40;;;29.36;41.38;97441.97;5199636;28;20197;-63
2021/07/04 09:22:51;;;;;;;3.97;3.70;;;27.30;93.40;;;29.05;41.74;97443.59;5196141;28;20221;-64
2021/07/04 09:25:28;;;;;;;4.18;3.95;;;27.10;93.10;;;29.05;41.70;97439.19;5202401;28;20209;-63
2021/07/04 09:28:06;;;;;;;4.00;3.72;;;26.90;94.20;;;28.90;41.34;97437.78;5200844;28;20207;-63
2021/07/04 09:30:44;;;;;;;3.88;3.58;;;26.70;94.40;;;28.82;42.70;97441.47;5197598;28;20201;-63
2021/07/04 09:33:19;;;;;;;3.78;3.55;;;26.40;95.20;;;28.53;43.07;97440.34;5203983;28;20223;-63
2021/07/04 09:35:57;;;;;;;4.35;4.05;;;26.30;95.10;;;28.44;43.46;97440.53;5206482;28;20192;-63
2021/07/04 09:38:34;;;;;;;3.80;3.50;;;26.00;95.60;;;28.36;45.03;97434.50;5206425;28;20297;-63
2021/07/04 09:41:10;;;;;;;3.70;3.50;;;26.10;96.60;;;28.02;45.89;97433.44;5205966;28;20189;-63
2021/07/04 09:43:43;;;;;;;4.13;3.83;;;25.90;96.60;;;27.87;45.95;97438.13;5204750;28;20266;-63
2021/07/04 09:46:18;;;;;;;3.90;3.60;;;25.80;96.40;;;27.73;44.51;97436.59;5205558;28;20221;-63
2021/07/04 09:48:53;;;;;;;3.85;3.65;;;25.70;96.10;;;27.72;45.89;97429.59;5204689;28;20240;-63
2021/07/04 09:51:28;;;;;;;4.40;4.10;;;25.60;96.80;;;27.69;45.91;97421.75;5204215;28;20292;-63
2021/07/04 09:54:02;;;;;;;4.78;4.38;;;25.80;96.60;;;27.87;46.91;97417.09;5206168;28;20193;-63
2021/07/04 09:56:36;;;;;;;3.67;3.42;;;26.10;96.70;;;28.05;44.48;97401.84;5198532;28;20203;-64
2021/07/04 09:59:22;;;;;;;4.22;3.83;;;26.30;95.20;;;28.34;43.78;97403.00;5197615;28;20724;-62
2021/07/04 10:01:55;;;;;;;3.95;3.70;;;26.40;94.80;;;28.25;44.39;97396.19;5198192;28;20236;-62
2021/07/04 10:04:31;;;;;;;4.18;3.88;;;26.30;95.70;;;28.30;43.96;97394.34;5204168;28;20198;-62
2021/07/04 10:07:05;;;;;;;4.30;4.00;;;26.50;95.20;;;28.63;44.73;97391.88;5201850;28;20294;-63
2021/07/04 10:09:40;;;;;;;4.28;3.90;;;26.80;95.50;;;28.43;43.37;97383.56;5205134;28;20215;-63
2021/07/04 10:12:13;;;;;;;4.10;3.85;;;26.80;94.20;;;28.38;43.99;97377.50;5206139;28;20308;-63
2021/07/04 10:14:49;;;;;;;4.20;3.80;;;27.00;94.40;;;28.46;44.20;97370.34;5204740;28;20682;-63
2021/07/04 10:17:27;;;;;;;4.30;4.00;;;27.10;94.90;;;28.53;44.10;97364.06;5193054;28;20191;-63
2021/07/04 10:20:02;;;;;;;4.53;4.13;;;27.20;93.80;;;28.62;44.16;97360.38;5196070;28;20194;-63
2021/07/04 10:22:37;;;;;;;4.00;3.70;;;27.20;94.30;;;28.50;43.67;97358.84;5204709;28;20262;-63
2021/07/04 10:25:12;;;;;;;4.05;3.60;;;27.30;93.80;;;28.49;42.38;97349.25;5202702;28;20194;-63
2021/07/04 10:27:49;;;;;;;4.07;3.78;;;27.30;92.50;;;28.27;43.70;97354.97;5197563;28;20216;-63
2021/07/04 10:30:23;;;;;;;4.28;3.97;;;27.10;93.50;;;28.35;43.85;97353.91;5205172;28;20653;-63
2021/07/04 10:33:19;;;;;;;4.50;4.20;;;27.20;93.40;;;28.21;44.48;97349.81;5201171;28;20221;-63
2021/07/04 10:36:11;;;;;;;4.10;3.90;;;27.00;93.80;;;28.38;45.00;97345.97;5202345;28;20665;-63
2021/07/04 10:38:54;;;;;;;4.32;4.10;;;27.10;94.80;;;28.42;44.25;97355.56;5201738;28;20201;-63
2021/07/04 10:41:31;;;;;;;4.45;4.15;;;27.10;94.30;;;28.36;44.41;97343.38;5201238;28;20328;-63
2021/07/04 10:44:09;;;;;;;4.72;4.32;;;26.90;94.40;;;28.30;44.49;97338.22;5203919;28;20204;-63
2021/07/04 10:47:08;;;;;;;4.45;4.15;;;26.80;94.30;;;28.32;43.68;97338.22;5204246;28;20596;-63